Cambridge, Illinois
Current Conditions -  °F | °C
As of 12:52 PM on Sunday 21 Dec 2014 (Local Time) from KMLI Reporting Station
Overcast Overcast  
Wind Chill: 35°   Ceiling: 2800
Heat Index: 41°   Visibility: 10mi
Dew Point: 34°   Wind: 10mph
Humidity: 76%   Direction: 170°S
Pressure: 30.01"   Gusts: NA
Location:  41.3°N, 90.19°W
Report Text: KMLI 211852Z 17009KT 10SM OVC028 05/01 A3001 RMK AO2 SLP168 T00500011
Loading
Personal Weather Stations






























Interactive Weather Map New forecast layout! Learn more

10-Day Weather Forecast

Advertisements
Track Severe Weather on mobile